Time;durP1;ratioP1;P1;durP2;ratioP2;P2;SDS_P1;SDS_P2;PMS_P1;PMS_P2;Temp;Humidity;BMP_temperature;BMP_pressure;BME280_temperature;BME280_humidity;BME280_pressure;Samples;Min_cycle;Max_cycle;Signal;HPM_P1;HPM_P2
2022/11/11 00:02:41;;;;;;;16.65;7.25;;;;;;;3.06;100.00;98739.75;5043103;28;20048;-59
2022/11/11 00:05:26;;;;;;;11.45;5.97;;;;;;;3.14;100.00;98738.91;5045206;28;20095;-59
2022/11/11 00:08:11;;;;;;;11.68;6.55;;;;;;;3.14;100.00;98732.72;5031898;28;20546;-59
2022/11/11 00:11:10;;;;;;;11.70;6.13;;;;;;;3.21;100.00;98723.00;5054941;28;20420;-59
2022/11/11 00:13:56;;;;;;;9.55;5.47;;;;;;;3.31;100.00;98722.81;5043956;28;20475;-58
2022/11/11 00:25:53;;;;;;;11.02;5.70;;;;;;;3.40;100.00;98732.50;5032770;28;20060;-59
2022/11/11 00:28:58;;;;;;;12.07;6.18;;;;;;;3.27;100.00;98724.16;5028735;28;20057;-59
2022/11/11 00:37:50;;;;;;;9.43;5.43;;;;;;;3.13;100.00;98718.47;5047741;28;20175;-58
2022/11/11 00:40:35;;;;;;;12.05;5.53;;;;;;;3.19;100.00;98731.19;5048191;28;20056;-60
2022/11/11 00:43:20;;;;;;;12.18;6.25;;;;;;;3.23;100.00;98734.38;5047788;28;20490;-59
2022/11/11 00:52:16;;;;;;;8.60;5.28;;;;;;;3.43;100.00;98737.47;5027195;28;20520;-59
2022/11/11 00:55:01;;;;;;;9.10;4.68;;;;;;;3.35;100.00;98735.69;5030460;28;20110;-59
2022/11/11 00:57:46;;;;;;;8.90;5.53;;;;;;;3.59;100.00;98743.81;5047125;28;20531;-58
2022/11/11 01:00:31;;;;;;;9.45;4.45;;;;;;;3.63;100.00;98753.16;5033858;28;20052;-59
2022/11/11 01:03:17;;;;;;;11.40;4.68;;;;;;;3.62;100.00;98756.88;5046091;28;20151;-58
2022/11/11 01:06:03;;;;;;;10.35;5.25;;;;;;;3.62;100.00;98759.53;5046663;28;20095;-59
2022/11/11 01:08:48;;;;;;;8.27;4.97;;;;;;;3.67;100.00;98759.00;5047794;28;20055;-58
2022/11/11 01:11:33;;;;;;;9.52;5.15;;;;;;;3.73;100.00;98753.78;5046471;28;20083;-58
2022/11/11 01:14:18;;;;;;;7.20;4.78;;;;;;;3.65;100.00;98751.16;5046347;28;20060;-58
2022/11/11 01:17:05;;;;;;;8.48;4.65;;;;;;;3.62;100.00;98746.16;5045799;28;20146;-58
2022/11/11 01:19:50;;;;;;;7.68;4.60;;;;;;;3.52;100.00;98741.00;5047761;28;20051;-58
2022/11/11 01:22:35;;;;;;;10.18;4.65;;;;;;;3.35;100.00;98737.50;5044380;28;20048;-57
2022/11/11 01:25:20;;;;;;;7.20;4.60;;;;;;;3.31;100.00;98737.03;5042634;28;20522;-58
2022/11/11 01:28:06;;;;;;;9.50;5.10;;;;;;;3.35;100.00;98745.53;5046529;28;20064;-57
2022/11/11 01:30:51;;;;;;;9.05;5.25;;;;;;;3.37;100.00;98751.56;5041487;28;20530;-58
2022/11/11 01:33:37;;;;;;;7.97;4.95;;;;;;;3.49;100.00;98757.38;5031680;28;20463;-57
2022/11/11 01:36:26;;;;;;;9.10;5.13;;;;;;;3.58;100.00;98748.31;5053319;28;20056;-57
2022/11/11 01:39:12;;;;;;;8.95;4.65;;;;;;;3.56;100.00;98741.47;5032260;28;20159;-58
2022/11/11 01:41:57;;;;;;;7.55;4.60;;;;;;;3.51;100.00;98736.66;5041545;28;20152;-58
2022/11/11 01:44:47;;;;;;;10.48;4.65;;;;;;;3.47;100.00;98740.69;5046105;28;20052;-58
2022/11/11 01:49:17;;;;;;;8.52;4.65;;;;;;;3.47;100.00;98738.81;5026759;28;20556;-59
2022/11/11 01:50:58;;;;;;;9.27;5.78;;;;;;;3.64;100.00;98738.75;5035316;28;20055;-59
2022/11/11 01:53:47;;;;;;;10.13;4.80;;;;;;;3.72;100.00;98738.72;5041650;28;20407;-59
2022/11/11 01:56:34;;;;;;;10.65;5.97;;;;;;;3.80;100.00;98737.03;5041467;28;20052;-59
2022/11/11 01:59:20;;;;;;;9.48;5.80;;;;;;;3.86;100.00;98737.16;5036448;28;20163;-59
2022/11/11 02:02:30;;;;;;;9.40;5.53;;;;;;;3.92;100.00;98735.66;5060240;28;20055;-58
2022/11/11 02:08:31;;;;;;;9.27;5.35;;;;;;;4.16;100.00;98734.66;5043721;28;20691;-58
2022/11/11 02:14:34;;;;;;;8.63;5.18;;;;;;;4.12;100.00;98733.34;5037745;28;20142;-59
2022/11/11 02:14:38;;;;;;;9.05;4.93;;;;;;;4.01;100.00;98731.91;5045936;28;20159;-59
2022/11/11 02:17:26;;;;;;;12.60;5.78;;;;;;;3.88;100.00;98740.50;5042115;28;20048;-59
2022/11/11 02:20:15;;;;;;;13.27;5.30;;;;;;;3.76;100.00;98747.28;5040045;28;20084;-59
2022/11/11 02:23:11;;;;;;;8.90;5.38;;;;;;;3.71;100.00;98752.28;5033104;28;20056;-59
2022/11/11 02:25:58;;;;;;;15.27;5.53;;;;;;;3.68;100.00;98761.50;5032394;28;20048;-58
2022/11/11 02:28:44;;;;;;;10.20;5.75;;;;;;;3.67;100.00;98759.84;5032485;28;20131;-59
2022/11/11 02:31:31;;;;;;;9.50;5.60;;;;;;;3.64;100.00;98754.84;5035496;28;20052;-58
2022/11/11 02:34:16;;;;;;;8.68;4.90;;;;;;;3.60;100.00;98754.34;5045527;28;20055;-59
2022/11/11 02:37:05;;;;;;;8.60;4.82;;;;;;;3.61;100.00;98756.00;5045872;28;20059;-57
2022/11/11 02:39:55;;;;;;;10.40;5.30;;;;;;;3.59;100.00;98762.56;5046024;28;20144;-59
2022/11/11 02:42:48;;;;;;;7.93;4.68;;;;;;;3.49;100.00;98747.53;5045027;28;20099;-58
2022/11/11 02:45:33;;;;;;;8.07;5.30;;;;;;;3.42;100.00;98751.88;5026958;28;20052;-59
2022/11/11 02:48:19;;;;;;;8.05;5.05;;;;;;;3.39;100.00;98736.16;5046165;28;20562;-57
2022/11/11 02:51:05;;;;;;;8.77;4.63;;;;;;;3.33;100.00;98737.72;5029190;28;20047;-58
2022/11/11 02:53:50;;;;;;;8.98;5.07;;;;;;;3.35;100.00;98737.50;5048418;28;20526;-59
2022/11/11 02:59:40;;;;;;;12.90;5.60;;;;;;;3.62;100.00;98735.44;5033782;28;20056;-59
2022/11/11 03:02:27;;;;;;;8.38;5.00;;;;;;;3.66;100.00;98726.03;5043114;28;20132;-58
2022/11/11 03:05:12;;;;;;;10.13;4.32;;;;;;;3.75;100.00;98725.00;5049564;28;20110;-60
2022/11/11 03:07:58;;;;;;;8.07;4.00;;;;;;;3.95;100.00;98719.22;5049022;28;20178;-58
2022/11/11 03:10:43;;;;;;;7.20;4.03;;;;;;;4.04;100.00;98722.69;5054170;28;20183;-58
2022/11/11 03:13:28;;;;;;;7.05;4.00;;;;;;;4.16;100.00;98715.06;5049581;28;20178;-58
2022/11/11 03:17:38;;;;;;;8.00;3.90;;;;;;;4.18;100.00;98713.06;5045877;28;20062;-58
2022/11/11 03:19:19;;;;;;;7.30;3.47;;;;;;;4.23;100.00;98721.38;5042669;28;20641;-60
2022/11/11 03:22:04;;;;;;;6.93;3.63;;;;;;;4.28;100.00;98715.50;5044319;28;20179;-58
2022/11/11 03:28:16;;;;;;;6.18;3.42;;;;;;;4.52;100.00;98710.97;5034501;28;20198;-59
2022/11/11 03:31:01;;;;;;;7.15;3.13;;;;;;;4.42;100.00;98719.25;5045772;28;20056;-57
2022/11/11 03:33:48;;;;;;;9.55;3.53;;;;;;;4.43;100.00;98721.75;5044140;28;20176;-59
2022/11/11 03:38:14;;;;;;;8.98;3.40;;;;;;;4.49;100.00;98716.72;5043178;28;20052;-59
2022/11/11 03:39:38;;;;;;;5.50;3.65;;;;;;;4.42;100.00;98711.19;5030721;28;20056;-58
2022/11/11 03:42:23;;;;;;;7.32;3.25;;;;;;;4.28;100.00;98708.28;5041824;28;20056;-58
2022/11/11 03:45:08;;;;;;;7.32;3.20;;;;;;;4.15;100.00;98711.56;5029226;28;20056;-58
2022/11/11 03:47:54;;;;;;;6.85;3.10;;;;;;;4.20;100.00;98715.56;5041406;28;20777;-58
2022/11/11 03:50:39;;;;;;;6.97;3.38;;;;;;;4.31;100.00;98715.13;5031165;28;20196;-57
2022/11/11 03:53:24;;;;;;;10.57;3.95;;;;;;;4.27;100.00;98720.03;5028282;28;20420;-59
2022/11/11 03:56:10;;;;;;;5.25;2.95;;;;;;;4.19;100.00;98725.44;5039086;28;20045;-58
2022/11/11 03:58:55;;;;;;;5.45;2.90;;;;;;;4.07;100.00;98729.53;5042215;28;20090;-59
2022/11/11 04:10:54;;;;;;;6.05;3.60;;;;;;;3.76;100.00;98755.31;5052535;28;20052;-59
2022/11/11 04:16:46;;;;;;;7.20;3.03;;;;;;;3.72;100.00;98759.34;5040543;28;20063;-57
2022/11/11 04:22:40;;;;;;;8.57;3.83;;;;;;;3.66;100.00;98760.03;5039609;28;20055;-60
2022/11/11 04:29:27;;;;;;;6.30;3.13;;;;;;;3.15;100.00;98739.72;5047137;28;20128;-56
2022/11/11 04:32:34;;;;;;;6.15;3.20;;;;;;;3.21;100.00;98745.25;5048256;28;20102;-60
2022/11/11 04:34:50;;;;;;;5.60;3.30;;;;;;;3.28;100.00;98744.56;5047629;28;20535;-59
2022/11/11 04:37:44;;;;;;;5.80;3.03;;;;;;;3.30;100.00;98743.41;5048568;28;20306;-60
2022/11/11 04:45:26;;;;;;;6.18;2.92;;;;;;;3.26;100.00;98760.81;5053713;28;20110;-60
2022/11/11 04:46:41;;;;;;;5.88;2.85;;;;;;;3.16;100.00;98755.63;5048200;28;20052;-59
2022/11/11 04:49:26;;;;;;;4.75;2.60;;;;;;;3.23;100.00;98766.50;5039801;28;20575;-60
2022/11/11 04:52:26;;;;;;;5.30;2.60;;;;;;;3.25;100.00;98775.19;5047750;28;20064;-60
2022/11/11 04:58:18;;;;;;;5.13;2.90;;;;;;;3.10;100.00;98783.09;5046768;28;20179;-60
2022/11/11 05:01:03;;;;;;;5.22;2.80;;;;;;;2.55;100.00;98788.06;5043709;28;20107;-59
2022/11/11 05:03:48;;;;;;;7.78;3.28;;;;;;;2.52;100.00;98799.09;5041153;28;20526;-59
2022/11/11 05:09:43;;;;;;;7.70;3.70;;;;;;;2.69;100.00;98816.00;5055562;28;20170;-59
2022/11/11 05:12:27;;;;;;;6.82;3.25;;;;;;;2.57;100.00;98828.84;5066505;28;20518;-58
2022/11/11 05:21:29;;;;;;;7.18;3.28;;;;;;;2.46;100.00;98836.19;5028704;28;20648;-59
2022/11/11 05:27:20;;;;;;;8.05;3.95;;;;;;;2.52;100.00;98837.38;5047145;28;20051;-59
2022/11/11 05:30:07;;;;;;;8.05;4.00;;;;;;;2.53;100.00;98848.88;5047444;28;20055;-58
2022/11/11 05:32:54;;;;;;;9.55;4.38;;;;;;;2.54;100.00;98839.88;5045278;28;20059;-58
2022/11/11 05:35:39;;;;;;;8.23;4.88;;;;;;;2.67;100.00;98855.44;5027152;28;20413;-58
2022/11/11 05:38:24;;;;;;;8.60;4.93;;;;;;;2.76;100.00;98851.78;5031624;28;20060;-58
2022/11/11 05:41:10;;;;;;;9.55;4.75;;;;;;;2.90;100.00;98852.13;5046829;28;20055;-57
2022/11/11 05:43:55;;;;;;;8.23;4.45;;;;;;;2.94;100.00;98856.16;5033064;28;20052;-59
2022/11/11 05:46:40;;;;;;;8.85;4.60;;;;;;;2.93;100.00;98847.31;5033998;28;20171;-59
2022/11/11 05:49:25;;;;;;;8.20;4.28;;;;;;;2.79;100.00;98854.13;5036645;28;20061;-59
2022/11/11 05:52:13;;;;;;;9.43;4.00;;;;;;;2.59;100.00;98851.75;5042284;28;20056;-59
2022/11/11 05:54:58;;;;;;;7.68;4.15;;;;;;;2.56;100.00;98869.97;5027534;28;20048;-59
2022/11/11 05:57:43;;;;;;;7.63;4.28;;;;;;;2.76;100.00;98867.00;5037163;28;20051;-59
2022/11/11 06:00:29;;;;;;;8.65;5.43;;;;;;;2.80;100.00;98868.34;5042649;28;20055;-59
2022/11/11 06:03:14;;;;;;;8.15;5.05;;;;;;;2.78;100.00;98871.19;5042167;28;20464;-59
2022/11/11 06:05:59;;;;;;;6.28;3.95;;;;;;;2.53;100.00;98870.28;5026573;28;20424;-59
2022/11/11 06:08:44;;;;;;;6.78;3.72;;;;;;;2.60;100.00;98873.97;5041671;28;20459;-59
2022/11/11 06:11:30;;;;;;;6.15;3.30;;;;;;;2.30;100.00;98881.56;5059597;28;20186;-58
2022/11/11 06:14:17;;;;;;;6.55;3.60;;;;;;;2.27;100.00;98889.91;5028828;28;20665;-60
2022/11/11 06:17:02;;;;;;;7.75;3.83;;;;;;;2.26;100.00;98896.25;5035845;28;20047;-59
2022/11/11 06:19:47;;;;;;;11.20;4.20;;;;;;;2.35;100.00;98897.97;5042099;28;20562;-59
2022/11/11 06:29:03;;;;;;;8.38;5.00;;;;;;;2.66;100.00;98904.59;5041854;28;20052;-58
2022/11/11 06:31:48;;;;;;;9.25;4.53;;;;;;;2.73;100.00;98905.63;5043264;28;20183;-59
2022/11/11 06:34:33;;;;;;;10.73;4.28;;;;;;;2.70;100.00;98908.63;5034450;28;20076;-58
2022/11/11 06:37:18;;;;;;;6.50;3.78;;;;;;;2.82;100.00;98901.13;5049099;28;20498;-58
2022/11/11 06:40:03;;;;;;;7.32;3.85;;;;;;;2.72;100.00;98902.09;5030794;28;20423;-59
2022/11/11 06:42:48;;;;;;;10.30;5.00;;;;;;;2.79;100.00;98898.75;5049207;28;20056;-59
2022/11/11 06:45:35;;;;;;;8.10;4.22;;;;;;;2.72;100.00;98896.75;5052282;28;20060;-59
2022/11/11 06:48:21;;;;;;;11.75;4.45;;;;;;;2.73;100.00;98898.41;5044604;28;20424;-59
2022/11/11 06:51:07;;;;;;;7.65;4.03;;;;;;;2.81;100.00;98894.94;5034101;28;20060;-58
2022/11/11 06:53:52;;;;;;;9.55;4.70;;;;;;;2.84;100.00;98899.94;5057789;28;20186;-59
2022/11/11 06:56:37;;;;;;;11.65;6.85;;;;;;;2.77;100.00;98890.06;5042967;28;20059;-59
2022/11/11 06:59:22;;;;;;;9.50;5.97;;;;;;;2.83;100.00;98897.44;5034692;28;20102;-56
2022/11/11 07:02:11;;;;;;;7.47;4.72;;;;;;;2.71;100.00;98897.75;5042211;28;20440;-58
2022/11/11 07:04:57;;;;;;;10.23;5.75;;;;;;;2.63;100.00;98904.91;5042805;28;20736;-60
2022/11/11 07:07:42;;;;;;;10.55;5.85;;;;;;;2.64;100.00;98902.06;5037305;28;20048;-59
2022/11/11 07:10:27;;;;;;;14.02;6.90;;;;;;;2.59;100.00;98907.91;5044624;28;20529;-58
2022/11/11 07:13:13;;;;;;;12.80;5.93;;;;;;;2.62;100.00;98912.13;5043041;28;20741;-59
2022/11/11 07:15:58;;;;;;;10.50;5.65;;;;;;;2.64;100.00;98917.28;5024610;28;20528;-59
2022/11/11 07:18:43;;;;;;;8.90;5.57;;;;;;;2.70;100.00;98922.81;5039891;28;20160;-60
2022/11/11 07:21:28;;;;;;;11.20;5.13;;;;;;;2.87;100.00;98920.19;5042709;28;20059;-59
2022/11/11 07:24:13;;;;;;;9.13;5.05;;;;;;;2.97;100.00;98914.69;5029560;28;20045;-58
2022/11/11 07:26:59;;;;;;;8.98;4.97;;;;;;;2.99;100.00;98907.34;5039744;28;20151;-60
2022/11/11 07:29:45;;;;;;;12.05;4.70;;;;;;;3.05;100.00;98913.84;5025547;28;20056;-58
2022/11/11 07:32:30;;;;;;;8.50;4.70;;;;;;;3.19;100.00;98913.22;5027601;28;20601;-59
2022/11/11 07:35:16;;;;;;;7.53;4.57;;;;;;;3.35;100.00;98915.06;5026540;28;20064;-60
2022/11/11 07:38:01;;;;;;;11.85;4.65;;;;;;;3.37;100.00;98917.59;5037743;28;20154;-59
2022/11/11 07:40:46;;;;;;;9.45;3.95;;;;;;;3.54;100.00;98918.41;5032706;28;20072;-58
2022/11/11 07:43:31;;;;;;;6.93;4.13;;;;;;;3.60;100.00;98915.06;5046864;28;20056;-60
2022/11/11 07:46:16;;;;;;;7.95;4.07;;;;;;;3.66;100.00;98908.19;5046718;28;20048;-60
2022/11/11 07:49:01;;;;;;;6.82;3.70;;;;;;;3.72;100.00;98907.50;5042859;28;20123;-58
2022/11/11 07:51:46;;;;;;;9.13;4.43;;;;;;;3.88;100.00;98900.47;5047201;28;20449;-60
2022/11/11 07:54:31;;;;;;;8.23;3.97;;;;;;;4.00;100.00;98904.47;5049126;28;20051;-59
2022/11/11 07:57:16;;;;;;;8.98;3.83;;;;;;;4.16;100.00;98905.41;5048982;28;20048;-59
2022/11/11 08:00:03;;;;;;;6.25;3.60;;;;;;;4.31;100.00;98907.38;5048749;28;20102;-56
2022/11/11 08:02:48;;;;;;;9.82;4.05;;;;;;;4.39;100.00;98908.16;5051807;28;20119;-59
2022/11/11 08:05:33;;;;;;;7.70;4.20;;;;;;;4.50;100.00;98906.13;5048565;28;20075;-59
2022/11/11 08:08:23;;;;;;;6.57;3.63;;;;;;;4.64;100.00;98910.75;5049464;28;20044;-60
2022/11/11 08:11:10;;;;;;;10.07;3.70;;;;;;;4.74;100.00;98915.91;5044488;28;20052;-58
2022/11/11 08:13:55;;;;;;;6.18;3.60;;;;;;;4.86;100.00;98915.53;5045612;28;20048;-60
2022/11/11 08:16:40;;;;;;;6.30;3.47;;;;;;;4.88;100.00;98913.47;5048295;28;20064;-58
2022/11/11 08:19:25;;;;;;;7.03;3.75;;;;;;;4.91;100.00;98910.44;5041000;28;20758;-59
2022/11/11 08:22:10;;;;;;;8.20;4.18;;;;;;;5.02;100.00;98906.53;5048053;28;20064;-56
2022/11/11 08:24:54;;;;;;;7.32;3.97;;;;;;;5.11;100.00;98904.59;5045424;28;20137;-56
2022/11/11 08:27:48;;;;;;;7.97;4.30;;;;;;;5.25;100.00;98903.84;5048477;28;20527;-58
2022/11/11 08:30:33;;;;;;;7.50;3.88;;;;;;;5.35;100.00;98903.59;5048449;28;20607;-58
2022/11/11 08:33:18;;;;;;;6.80;3.35;;;;;;;5.48;100.00;98908.34;5048739;28;20048;-58
2022/11/11 08:36:18;;;;;;;6.88;3.60;;;;;;;5.58;100.00;98903.59;5048481;28;20130;-58
2022/11/11 08:39:05;;;;;;;6.20;3.60;;;;;;;5.71;100.00;98902.09;5048293;28;20149;-58
2022/11/11 08:41:50;;;;;;;6.25;3.45;;;;;;;5.84;100.00;98904.19;5047733;28;20416;-58
2022/11/11 08:44:35;;;;;;;6.63;3.58;;;;;;;5.96;100.00;98904.56;5048152;28;20195;-58
2022/11/11 08:47:21;;;;;;;8.43;3.70;;;;;;;6.10;100.00;98909.16;5047554;28;20130;-57
2022/11/11 08:50:06;;;;;;;6.13;3.15;;;;;;;6.21;100.00;98898.94;5040317;28;20416;-57
2022/11/11 08:52:52;;;;;;;4.32;2.60;;;;;;;6.32;100.00;98894.94;5047791;28;20726;-56
2022/11/11 08:55:37;;;;;;;5.22;2.50;;;;;;;6.45;100.00;98903.19;5040826;28;20188;-58
2022/11/11 08:58:22;;;;;;;4.43;2.35;;;;;;;6.56;100.00;98903.75;5030857;28;20139;-57
2022/11/11 09:01:12;;;;;;;5.05;2.40;;;;;;;6.70;100.00;98907.41;5042208;28;20602;-58
2022/11/11 09:03:57;;;;;;;6.30;2.72;;;;;;;6.80;100.00;98902.59;5046025;28;20061;-58
2022/11/11 09:07:02;;;;;;;5.35;2.22;;;;;;;6.94;100.00;98910.81;5045696;28;20067;-58
2022/11/11 09:09:47;;;;;;;7.53;2.80;;;;;;;7.06;100.00;98905.75;5042321;28;20536;-57
2022/11/11 09:12:32;;;;;;;5.00;2.47;;;;;;;7.15;100.00;98900.06;5039818;28;20119;-56
2022/11/11 09:15:17;;;;;;;5.28;2.63;;;;;;;7.29;100.00;98897.47;5037410;28;20167;-57
2022/11/11 09:18:02;;;;;;;4.72;2.35;;;;;;;7.42;100.00;98894.91;5036701;28;20532;-57
2022/11/11 09:20:48;;;;;;;4.75;2.20;;;;;;;7.62;100.00;98894.25;5039920;28;20097;-58
2022/11/11 09:23:33;;;;;;;4.03;2.00;;;;;;;7.86;100.00;98886.78;5046801;28;20055;-59
2022/11/11 09:26:18;;;;;;;3.97;2.00;;;;;;;8.07;100.00;98890.41;5054158;28;20110;-57
2022/11/11 09:29:03;;;;;;;5.93;2.53;;;;;;;8.30;100.00;98890.13;5036582;28;20056;-59
2022/11/11 09:31:48;;;;;;;10.85;2.63;;;;;;;8.51;99.28;98885.66;5044865;28;20190;-59
2022/11/11 09:34:33;;;;;;;3.50;1.90;;;;;;;8.62;97.03;98892.38;5045739;28;20051;-59
2022/11/11 09:37:18;;;;;;;3.97;2.00;;;;;;;8.77;96.54;98896.81;5034511;28;20562;-59
2022/11/11 09:40:04;;;;;;;4.68;2.05;;;;;;;8.94;97.33;98894.56;5045201;28;20060;-58
2022/11/11 09:43:04;;;;;;;6.25;2.13;;;;;;;9.14;96.85;98878.38;5057460;28;20060;-60
2022/11/11 09:46:05;;;;;;;5.68;1.95;;;;;;;9.26;95.33;98880.50;5034806;28;20190;-60
2022/11/11 09:48:57;;;;;;;4.07;1.97;;;;;;;9.35;94.79;98879.25;5034728;28;20627;-59
2022/11/11 09:51:51;;;;;;;4.90;1.98;;;;;;;9.46;93.91;98880.50;5044808;28;20095;-58
2022/11/11 09:54:57;;;;;;;6.47;2.15;;;;;;;9.58;93.27;98868.03;5044479;28;20047;-58
2022/11/11 09:57:57;;;;;;;3.65;2.13;;;;;;;9.74;93.32;98874.88;5044612;28;20060;-58
2022/11/11 10:00:46;;;;;;;3.83;1.63;;;;;;;9.88;93.71;98873.00;5032605;28;20088;-56
2022/11/11 10:03:37;;;;;;;4.95;1.90;;;;;;;10.15;92.97;98869.41;5044472;28;20068;-56
2022/11/11 10:06:29;;;;;;;4.65;2.03;;;;;;;10.23;90.93;98871.91;5044610;28;20191;-56
2022/11/11 10:09:26;;;;;;;3.97;1.67;;;;;;;10.34;90.92;98869.56;5047882;28;20856;-58
2022/11/11 10:12:15;;;;;;;6.35;1.77;;;;;;;10.46;89.87;98867.88;5034653;28;20052;-58
2022/11/11 10:15:04;;;;;;;6.43;1.60;;;;;;;10.60;90.99;98859.69;5058156;28;20763;-58
2022/11/11 10:18:04;;;;;;;3.53;1.70;;;;;;;10.68;91.91;98856.75;5043717;28;20729;-56
2022/11/11 10:20:54;;;;;;;4.60;1.92;;;;;;;10.77;91.51;98862.75;5024931;28;20538;-55
2022/11/11 10:23:41;;;;;;;5.75;2.20;;;;;;;10.85;89.28;98867.09;5043916;28;20141;-57
2022/11/11 10:26:41;;;;;;;3.85;2.28;;;;;;;10.95;90.51;98869.34;5031876;28;20044;-56
2022/11/11 10:29:34;;;;;;;5.47;1.85;;;;;;;11.03;89.69;98874.50;5044155;28;20055;-54
2022/11/11 10:32:31;;;;;;;5.05;1.98;;;;;;;11.08;89.77;98871.97;5044047;28;20047;-56
2022/11/11 10:35:20;;;;;;;6.38;1.85;;;;;;;11.16;88.67;98866.28;5043894;28;20142;-57
2022/11/11 10:38:08;;;;;;;3.85;1.70;;;;;;;11.25;88.00;98864.16;5044576;28;20122;-56
2022/11/11 10:40:59;;;;;;;4.38;1.73;;;;;;;11.29;87.80;98875.38;5039845;28;20063;-57
2022/11/11 10:43:47;;;;;;;2.97;1.50;;;;;;;11.36;87.92;98878.88;5044525;28;20239;-57
2022/11/11 10:46:42;;;;;;;7.10;2.28;;;;;;;11.42;87.36;98877.13;5044142;28;20056;-57
2022/11/11 10:49:32;;;;;;;4.10;1.70;;;;;;;11.49;86.18;98863.53;5036080;28;20060;-56
2022/11/11 10:52:40;;;;;;;4.18;1.90;;;;;;;11.54;85.83;98867.25;5042644;28;20068;-57
2022/11/11 10:55:32;;;;;;;5.78;2.00;;;;;;;11.60;85.40;98867.44;5043992;28;20075;-56
2022/11/11 10:58:27;;;;;;;;;;;;;;;11.71;84.91;98856.69;5043743;28;20581;-56
2022/11/11 11:01:17;;;;;;;7.47;2.35;;;;;;;11.78;84.17;98856.59;5034177;28;19927;-58
2022/11/11 11:04:08;;;;;;;6.80;1.80;;;;;;;11.83;84.30;98853.22;5042866;28;20056;-58
2022/11/11 11:06:56;;;;;;;3.45;1.40;;;;;;;11.89;83.71;98854.19;5044282;28;20110;-58
2022/11/11 11:10:02;;;;;;;3.33;1.50;;;;;;;11.99;85.07;98846.38;5050916;28;20063;-58
2022/11/11 11:13:04;;;;;;;3.50;1.63;;;;;;;12.06;84.81;98843.63;5039313;28;20550;-58
2022/11/11 11:15:56;;;;;;;6.55;1.60;;;;;;;11.95;81.53;98837.84;5037676;28;20105;-58
2022/11/11 11:18:43;;;;;;;;;;;;;;;11.94;81.25;98846.25;5044295;28;20194;-57
2022/11/11 11:21:47;;;;;;;4.47;1.63;;;;;;;11.99;82.12;98832.81;5060004;28;20504;-58
2022/11/11 11:24:36;;;;;;;3.45;1.40;;;;;;;12.01;82.38;98830.69;5047689;28;20064;-58
2022/11/11 11:27:27;;;;;;;5.85;1.60;;;;;;;11.99;83.52;98838.25;5047361;28;20191;-57
2022/11/11 11:30:18;;;;;;;1.92;1.20;;;;;;;12.03;83.08;98836.75;5044096;28;20085;-57
2022/11/11 11:33:05;;;;;;;4.32;1.40;;;;;;;12.07;83.78;98831.72;5048723;28;20531;-58
2022/11/11 11:35:51;;;;;;;3.40;1.27;;;;;;;12.09;84.16;98835.03;5047202;28;20051;-58
2022/11/11 11:38:49;;;;;;;5.03;2.42;;;;;;;11.96;86.01;98838.69;5057774;28;20063;-58
2022/11/11 11:41:37;;;;;;;7.10;1.88;;;;;;;11.90;86.19;98834.16;5035956;28;20076;-57
2022/11/11 11:44:28;;;;;;;4.97;1.90;;;;;;;11.88;86.97;98839.81;5047415;28;20110;-54
2022/11/11 11:47:42;;;;;;;4.40;1.88;;;;;;;11.82;87.50;98836.13;5047324;28;20059;-54
2022/11/11 11:50:50;;;;;;;5.65;2.05;;;;;;;11.83;87.75;98836.91;5036132;28;20559;-52
2022/11/11 11:53:52;;;;;;;6.15;2.38;;;;;;;11.77;87.78;98843.25;5047327;28;20056;-56
2022/11/11 11:56:43;;;;;;;4.25;2.00;;;;;;;11.77;88.18;98835.13;5046630;28;20051;-55
2022/11/11 12:00:03;;;;;;;6.60;2.22;;;;;;;11.75;88.27;98831.81;5046564;28;20613;-54
2022/11/11 12:03:25;;;;;;;5.68;2.40;;;;;;;11.76;87.92;98831.56;5043199;28;20056;-54
2022/11/11 12:06:38;;;;;;;3.95;2.10;;;;;;;11.83;87.90;98835.06;5037921;28;20075;-55
2022/11/11 12:09:29;;;;;;;5.38;2.15;;;;;;;11.84;88.89;98827.75;5051075;28;20063;-55
2022/11/11 12:12:31;;;;;;;;;;;;;;;11.97;87.52;98834.91;5034511;28;20083;-56
2022/11/11 12:15:40;;;;;;;5.90;2.10;;;;;;;11.99;87.12;98832.81;5046128;28;20054;-51
2022/11/11 12:18:40;;;;;;;5.40;2.33;;;;;;;12.04;86.51;98821.25;5047300;28;20059;-51
2022/11/11 12:21:40;;;;;;;4.75;2.40;;;;;;;12.09;86.45;98822.28;5045688;28;20082;-54
2022/11/11 12:24:46;;;;;;;4.65;1.90;;;;;;;12.19;85.54;98823.63;5045652;28;20051;-53
2022/11/11 12:27:37;;;;;;;4.63;1.67;;;;;;;12.26;84.57;98824.41;5034376;28;20126;-53
2022/11/11 12:30:30;;;;;;;2.85;1.50;;;;;;;12.33;84.20;98824.31;5033753;28;20622;-53
2022/11/11 12:33:31;;;;;;;5.07;1.85;;;;;;;12.44;82.66;98828.16;5042794;28;20055;-53
2022/11/11 12:36:23;;;;;;;3.92;1.67;;;;;;;12.47;80.41;98828.53;5046410;28;20109;-54
2022/11/11 12:39:33;;;;;;;4.00;1.52;;;;;;;12.53;80.66;98834.13;5063033;28;20077;-50
2022/11/11 12:42:54;;;;;;;4.55;1.33;;;;;;;12.61;79.51;98831.88;5045475;28;20048;-52
2022/11/11 12:46:00;;;;;;;4.25;1.90;;;;;;;12.67;78.96;98826.59;5046038;28;20056;-50
2022/11/11 12:48:55;;;;;;;3.78;1.30;;;;;;;12.70;78.69;98823.41;5043205;28;20073;-55
2022/11/11 12:52:00;;;;;;;4.05;1.30;;;;;;;12.75;78.12;98820.84;5037799;28;20134;-53
2022/11/11 12:55:00;;;;;;;3.05;1.38;;;;;;;12.71;77.35;98819.63;5045691;28;20431;-54
2022/11/11 12:57:55;;;;;;;3.92;1.20;;;;;;;12.76;79.00;98833.38;5046534;28;20060;-53
2022/11/11 13:00:57;;;;;;;4.25;1.80;;;;;;;12.79;80.69;98832.09;5045632;28;20063;-52
2022/11/11 13:03:53;;;;;;;8.60;4.95;;;;;;;12.71;85.90;98830.50;5043442;28;20539;-52
2022/11/11 13:07:12;;;;;;;10.82;5.35;;;;;;;12.24;89.61;98831.94;5045612;28;20056;-53
2022/11/11 13:10:31;;;;;;;9.95;5.88;;;;;;;11.91;92.48;98835.81;5053819;28;20059;-51
2022/11/11 13:13:25;;;;;;;14.02;6.45;;;;;;;11.81;93.38;98834.47;5045577;28;20088;-57
2022/11/11 13:16:11;;;;;;;11.63;5.95;;;;;;;11.84;93.35;98834.00;5045719;28;20052;-57
2022/11/11 13:19:04;;;;;;;9.88;5.85;;;;;;;11.84;93.40;98830.47;5036100;28;20552;-57
2022/11/11 13:22:05;;;;;;;10.13;6.65;;;;;;;11.87;93.48;98832.72;5051747;28;20147;-57
2022/11/11 13:24:52;;;;;;;13.32;6.10;;;;;;;11.73;95.28;98823.06;5051779;28;20566;-57
2022/11/11 13:27:44;;;;;;;12.68;5.88;;;;;;;11.77;94.28;98824.25;5051448;28;20059;-58
2022/11/11 13:31:10;;;;;;;17.35;6.70;;;;;;;11.68;95.54;98826.41;5035523;28;20051;-54
2022/11/11 13:34:01;;;;;;;10.35;5.68;;;;;;;11.68;95.69;98821.84;5039413;28;20051;-59
2022/11/11 13:36:50;;;;;;;9.57;5.57;;;;;;;11.79;94.43;98822.97;5029618;28;20540;-55
2022/11/11 13:39:47;;;;;;;13.02;6.47;;;;;;;11.93;93.50;98811.97;5040672;28;20536;-57
2022/11/11 13:42:45;;;;;;;8.10;4.85;;;;;;;12.02;93.31;98818.78;5045593;28;20059;-56
2022/11/11 13:45:36;;;;;;;12.07;5.45;;;;;;;12.03;92.29;98817.75;5046846;28;20056;-59
2022/11/11 13:48:26;;;;;;;8.18;5.05;;;;;;;12.09;91.59;98822.28;5046641;28;20107;-58
2022/11/11 13:51:35;;;;;;;11.75;5.78;;;;;;;12.08;91.77;98823.34;5026427;28;20135;-57
2022/11/11 13:54:28;;;;;;;9.18;5.05;;;;;;;12.28;90.23;98824.16;5038827;28;20438;-57
2022/11/11 13:57:13;;;;;;;9.85;4.88;;;;;;;12.30;89.49;98827.47;5046720;28;20138;-57
2022/11/11 14:00:01;;;;;;;9.25;5.85;;;;;;;12.27;88.80;98827.94;5063361;28;20082;-57
2022/11/11 14:02:46;;;;;;;8.45;4.50;;;;;;;12.29;88.32;98825.81;5066247;28;20086;-57
2022/11/11 14:05:31;;;;;;;7.25;3.90;;;;;;;12.28;88.09;98814.16;5045078;28;20503;-57
2022/11/11 14:08:44;;;;;;;9.57;4.68;;;;;;;12.16;88.12;98814.06;5035829;28;20440;-56
2022/11/11 14:11:33;;;;;;;8.23;4.20;;;;;;;12.24;87.60;98815.66;5040072;28;20436;-57
2022/11/11 14:14:30;;;;;;;10.15;4.25;;;;;;;12.35;85.81;98811.34;5045445;28;20072;-57
2022/11/11 14:17:16;;;;;;;6.57;3.50;;;;;;;12.51;84.73;98809.88;5032593;28;20546;-57
2022/11/11 14:20:35;;;;;;;10.82;3.40;;;;;;;12.66;83.40;98814.06;5041588;28;20052;-54
2022/11/11 14:23:41;;;;;;;7.32;3.22;;;;;;;12.88;83.15;98812.53;5031227;28;20119;-58
2022/11/11 14:26:27;;;;;;;5.97;3.05;;;;;;;12.97;82.28;98812.19;5057883;28;20056;-56
2022/11/11 14:29:18;;;;;;;8.30;3.55;;;;;;;12.86;83.18;98816.50;5048902;28;20060;-57
2022/11/11 14:32:26;;;;;;;8.30;3.83;;;;;;;12.79;84.33;98826.66;5028341;28;20058;-57
2022/11/11 14:35:14;;;;;;;7.43;4.18;;;;;;;12.61;86.18;98826.47;5038185;28;20060;-57
2022/11/11 14:38:37;;;;;;;7.47;4.53;;;;;;;12.45;87.36;98827.94;5044698;28;20191;-54
2022/11/11 14:41:47;;;;;;;11.10;4.75;;;;;;;12.41;87.90;98832.16;5044796;28;20055;-57